Time;durP1;ratioP1;P1;durP2;ratioP2;P2;SDS_P1;SDS_P2;PMS_P1;PMS_P2;Temp;Humidity;BMP_temperature;BMP_pressure;BME280_temperature;BME280_humidity;BME280_pressure;Samples;Min_cycle;Max_cycle;Signal;HPM_P1;HPM_P2
2021/10/21 00:00:22;;;;;;;21.45;11.20;;;;;;;12.00;61.41;145203.86;1834962;77;22156;-61
2021/10/21 00:03:24;;;;;;;21.65;11.45;;;;;;;11.95;61.57;145193.80;1853436;77;22159;-62
2021/10/21 00:05:58;;;;;;;17.05;10.70;;;;;;;11.90;61.72;145181.25;1834973;77;22129;-61
2021/10/21 00:08:33;;;;;;;15.75;10.53;;;;;;;11.86;61.87;145171.23;1853566;77;22132;-64
2021/10/21 00:11:10;;;;;;;24.32;12.20;;;;;;;11.83;62.08;145162.36;1853585;77;22240;-61
2021/10/21 00:13:46;;;;;;;19.73;11.48;;;;;;;11.79;62.15;145152.34;1853537;77;22186;-62
2021/10/21 00:16:41;;;;;;;19.95;11.40;;;;;;;11.77;62.33;145148.56;1834821;77;22156;-61
2021/10/21 00:19:16;;;;;;;20.08;11.20;;;;;;;11.73;62.43;145138.55;1834962;77;22153;-61
2021/10/21 00:21:51;;;;;;;17.35;11.45;;;;;;;11.72;62.61;145137.25;1834969;77;22160;-61
2021/10/21 00:24:46;;;;;;;19.87;10.58;;;;;;;11.71;62.65;145133.52;1834758;77;22151;-63
2021/10/21 00:27:22;;;;;;;21.15;10.75;;;;;;;11.69;62.83;145129.73;1834928;77;22574;-62
2021/10/21 00:30:16;;;;;;;19.40;11.63;;;;;;;11.70;62.85;145130.98;1853444;77;22135;-63
2021/10/21 00:32:52;;;;;;;21.75;11.65;;;;;;;11.66;62.95;145122.22;1834953;77;22128;-62
2021/10/21 00:35:47;;;;;;;18.62;10.72;;;;;;;11.67;62.96;145123.45;1837758;77;28012;-60
2021/10/21 00:38:23;;;;;;;17.65;11.60;;;;;;;11.70;62.92;145130.98;1853552;77;22590;-62
2021/10/21 00:41:17;;;;;;;17.17;11.83;;;;;;;11.70;63.03;145130.98;1834896;77;22571;-61
2021/10/21 00:44:07;;;;;;;16.40;9.90;;;;;;;11.68;63.06;145126.00;1834917;77;22539;-61
2021/10/21 00:46:57;;;;;;;23.95;11.40;;;;;;;11.67;63.13;145123.45;1853471;77;22152;-61
2021/10/21 00:49:50;;;;;;;19.37;10.68;;;;;;;11.66;63.20;145120.97;1853500;77;22567;-63
2021/10/21 00:52:45;;;;;;;24.50;12.90;;;;;;;11.63;63.34;145113.44;1834906;77;22551;-61
2021/10/21 00:55:27;;;;;;;21.00;11.97;;;;;;;11.62;63.45;145112.16;1834051;77;22194;-63
2021/10/21 00:58:22;;;;;;;20.72;11.60;;;;;;;11.61;63.49;145108.41;1853511;77;22144;-62
2021/10/21 01:01:24;;;;;;;21.90;10.82;;;;;;;11.59;63.58;145103.38;1853425;77;22621;-61
2021/10/21 01:04:25;;;;;;;20.08;10.95;;;;;;;11.55;63.75;145094.63;1853511;77;22654;-64
2021/10/21 01:07:19;;;;;;;22.22;12.43;;;;;;;11.50;63.93;145082.06;1853558;77;22578;-63
2021/10/21 01:09:55;;;;;;;20.57;11.55;;;;;;;11.46;64.02;145072.00;1853496;77;22184;-60
2021/10/21 01:12:30;;;;;;;25.08;11.63;;;;;;;11.42;64.17;145063.23;1834966;77;22129;-63
2021/10/21 01:15:22;;;;;;;18.45;11.22;;;;;;;11.39;64.38;145055.67;1834891;77;22558;-63
2021/10/21 01:17:59;;;;;;;19.82;11.55;;;;;;;11.35;64.57;145044.36;1834861;77;22158;-63
2021/10/21 01:20:34;;;;;;;17.98;10.78;;;;;;;11.33;64.66;145039.38;1835069;77;20100;-64
2021/10/21 01:23:09;;;;;;;20.85;11.78;;;;;;;11.30;64.72;145034.36;1834974;77;22132;-61
2021/10/21 01:25:44;;;;;;;20.70;11.78;;;;;;;11.28;64.92;145029.33;1834866;77;22180;-61
2021/10/21 01:28:22;;;;;;;19.42;11.30;;;;;;;11.26;65.06;145024.30;1834859;77;22600;-63
2021/10/21 01:30:57;;;;;;;20.92;11.80;;;;;;;11.23;65.14;145016.78;1834978;77;22610;-61
2021/10/21 01:33:34;;;;;;;19.85;11.33;;;;;;;11.22;65.32;145013.00;1834974;77;22133;-60
2021/10/21 01:36:27;;;;;;;19.65;10.82;;;;;;;11.20;65.39;145008.02;1843287;77;22172;-61
2021/10/21 01:39:11;;;;;;;18.92;11.97;;;;;;;11.18;65.50;145002.98;1853430;77;22282;-62
2021/10/21 01:41:46;;;;;;;19.67;11.57;;;;;;;11.16;65.62;144997.95;1834947;77;22238;-63
2021/10/21 01:44:41;;;;;;;22.82;12.28;;;;;;;11.13;65.75;144991.69;1834863;77;22575;-61
2021/10/21 01:47:36;;;;;;;19.15;12.13;;;;;;;11.08;65.87;144980.37;1834872;77;22297;-64
2021/10/21 01:50:11;;;;;;;20.35;12.18;;;;;;;11.06;66.08;144975.34;1853676;77;22128;-58
2021/10/21 01:52:48;;;;;;;19.07;12.58;;;;;;;11.02;66.30;144965.34;1837756;77;28025;-60
2021/10/21 01:55:43;;;;;;;19.57;11.25;;;;;;;11.02;66.38;144965.34;1853468;77;22160;-64
2021/10/21 01:58:18;;;;;;;24.18;13.35;;;;;;;11.00;66.45;144960.31;1800773;79;22180;-64
2021/10/21 02:01:14;;;;;;;20.17;12.35;;;;;;;10.98;66.60;144955.28;1800354;79;28174;-58
2021/10/21 02:03:49;;;;;;;21.15;12.05;;;;;;;11.00;66.68;144959.06;1834944;77;22579;-59
2021/10/21 02:06:30;;;;;;;20.70;12.50;;;;;;;10.96;66.73;144950.25;1853496;77;22147;-62
2021/10/21 02:09:24;;;;;;;21.77;12.20;;;;;;;10.93;66.91;144942.75;1853507;77;22136;-60
2021/10/21 02:11:59;;;;;;;34.70;13.13;;;;;;;10.89;67.05;144932.73;1853477;77;22155;-61
2021/10/21 02:14:33;;;;;;;20.17;12.50;;;;;;;10.86;67.29;144925.17;1834974;77;22128;-60
2021/10/21 02:17:09;;;;;;;22.37;12.90;;;;;;;10.83;67.44;144917.66;1834946;77;22125;-60
2021/10/21 02:19:44;;;;;;;20.88;13.08;;;;;;;10.79;67.53;144907.64;1837832;77;27987;-64
2021/10/21 02:22:19;;;;;;;21.70;13.30;;;;;;;10.80;67.62;144910.13;1853521;77;22132;-61
2021/10/21 02:24:54;;;;;;;26.00;14.43;;;;;;;10.76;67.80;144900.08;1835003;77;22140;-63
2021/10/21 02:27:30;;;;;;;26.65;14.05;;;;;;;10.70;68.06;144886.28;1834862;77;22571;-61
2021/10/21 02:30:08;;;;;;;24.95;14.35;;;;;;;10.67;68.24;144877.53;1834929;77;22136;-62
2021/10/21 02:33:01;;;;;;;23.07;13.38;;;;;;;10.61;68.41;144863.75;1834907;77;22128;-62
2021/10/21 02:35:55;;;;;;;21.52;14.23;;;;;;;10.55;68.65;144849.91;1834935;77;22163;-65
2021/10/21 02:38:30;;;;;;;24.10;14.50;;;;;;;10.51;68.84;144838.66;1834861;77;22152;-63
2021/10/21 02:41:24;;;;;;;23.70;14.00;;;;;;;10.47;69.14;144829.84;1834915;77;22216;-62
2021/10/21 02:43:58;;;;;;;23.35;12.78;;;;;;;10.42;69.27;144817.31;1853474;77;22143;-62
2021/10/21 02:46:33;;;;;;;25.88;14.20;;;;;;;10.38;69.46;144808.56;1834937;77;22547;-62
2021/10/21 02:49:09;;;;;;;24.82;13.15;;;;;;;10.36;69.69;144802.28;1834851;77;22184;-63
2021/10/21 02:52:04;;;;;;;23.57;13.68;;;;;;;10.38;69.71;144808.56;1834867;77;22164;-62
2021/10/21 02:54:58;;;;;;;21.68;13.30;;;;;;;10.37;69.71;144806.02;1843386;78;22574;-64
2021/10/21 02:57:34;;;;;;;22.93;13.60;;;;;;;10.37;69.75;144804.78;1834942;77;22590;-60
2021/10/21 03:00:10;;;;;;;19.70;12.95;;;;;;;10.34;69.86;144798.50;1819293;77;28000;-62
2021/10/21 03:02:51;;;;;;;21.12;12.28;;;;;;;10.36;69.85;144802.28;1834030;77;22277;-61
2021/10/21 03:05:45;;;;;;;22.00;12.95;;;;;;;10.30;70.01;144787.22;1853534;77;22159;-64
2021/10/21 03:08:20;;;;;;;23.73;13.83;;;;;;;10.25;70.22;144775.86;1853491;77;22147;-62
2021/10/21 03:11:20;;;;;;;21.17;13.40;;;;;;;10.20;70.47;144764.62;1834058;77;22585;-61
2021/10/21 03:13:54;;;;;;;22.32;13.18;;;;;;;10.17;70.62;144755.81;1853565;77;22565;-63
2021/10/21 03:16:35;;;;;;;21.95;13.10;;;;;;;10.13;70.84;144745.81;1834092;77;22160;-62
2021/10/21 03:19:10;;;;;;;26.60;13.75;;;;;;;10.09;70.89;144735.77;1853592;77;22151;-64
2021/10/21 03:22:05;;;;;;;23.85;13.53;;;;;;;10.04;71.22;144724.47;1834995;77;22558;-63
2021/10/21 03:24:41;;;;;;;21.95;12.40;;;;;;;10.03;71.29;144720.73;1834836;77;22567;-62
2021/10/21 03:27:16;;;;;;;18.17;12.85;;;;;;;10.02;71.42;144719.44;1853510;77;22595;-62
2021/10/21 03:29:51;;;;;;;25.97;14.85;;;;;;;10.04;71.49;144723.22;1819320;77;28034;-63
2021/10/21 03:32:28;;;;;;;22.17;13.10;;;;;;;10.09;71.41;144737.00;1853489;77;22178;-61
2021/10/21 03:35:05;;;;;;;24.85;14.55;;;;;;;10.09;71.34;144737.00;1819460;77;38347;-63
2021/10/21 03:37:40;;;;;;;21.45;13.35;;;;;;;10.12;71.30;144743.28;1834961;77;22171;-61
2021/10/21 03:40:16;;;;;;;28.30;13.98;;;;;;;10.07;71.33;144731.98;1853481;77;22159;-63
2021/10/21 03:43:11;;;;;;;22.17;14.53;;;;;;;10.02;71.58;144719.44;1819341;77;28459;-61
2021/10/21 03:45:45;;;;;;;22.22;14.13;;;;;;;10.02;71.62;144719.44;1834944;77;22124;-63
2021/10/21 03:48:40;;;;;;;23.70;15.28;;;;;;;9.96;71.85;144704.42;1839763;77;22244;-61
2021/10/21 03:51:20;;;;;;;24.37;13.98;;;;;;;9.91;72.05;144691.89;1834201;77;22161;-61
2021/10/21 03:53:55;;;;;;;25.02;13.85;;;;;;;9.88;72.29;144684.38;1853487;77;22131;-62
2021/10/21 03:56:30;;;;;;;25.80;14.45;;;;;;;9.84;72.54;144675.58;1853487;77;22590;-60
2021/10/21 03:59:12;;;;;;;23.98;14.87;;;;;;;9.84;72.64;144674.33;1834052;77;22615;-64
2021/10/21 04:01:47;;;;;;;28.25;14.78;;;;;;;9.84;72.75;144674.33;1853508;77;22176;-61
2021/10/21 04:04:22;;;;;;;21.40;15.28;;;;;;;9.82;72.74;144669.31;1834845;77;22136;-63
2021/10/21 04:07:18;;;;;;;27.05;16.67;;;;;;;9.77;72.98;144659.31;1837661;77;27984;-60
2021/10/21 04:09:53;;;;;;;23.83;15.20;;;;;;;9.78;73.07;144660.55;1853489;77;22124;-61
2021/10/21 04:12:35;;;;;;;26.80;16.75;;;;;;;9.75;73.22;144654.28;1834101;77;22168;-60
2021/10/21 04:15:35;;;;;;;30.02;16.25;;;;;;;9.70;73.47;144640.50;1834068;77;22168;-60
2021/10/21 04:18:29;;;;;;;30.82;14.98;;;;;;;9.65;73.76;144629.22;1834914;77;22164;-59
2021/10/21 04:21:12;;;;;;;28.05;15.48;;;;;;;9.65;73.84;144629.22;1834053;77;22128;-61
2021/10/21 04:23:47;;;;;;;29.20;16.30;;;;;;;9.66;73.85;144631.70;1853487;77;22156;-62
2021/10/21 04:26:23;;;;;;;34.13;16.70;;;;;;;9.68;73.84;144636.72;1834912;77;22153;-60
2021/10/21 04:29:22;;;;;;;27.17;15.68;;;;;;;9.69;73.76;144639.27;1834045;77;22606;-60
2021/10/21 04:32:05;;;;;;;26.42;16.52;;;;;;;9.69;73.73;144637.97;1822984;77;22211;-61
2021/10/21 04:34:39;;;;;;;26.52;16.75;;;;;;;9.69;73.69;144639.27;1834941;77;22210;-62
2021/10/21 04:37:14;;;;;;;25.72;16.35;;;;;;;9.68;73.69;144636.72;1834935;77;22591;-61
2021/10/21 04:39:52;;;;;;;28.98;17.10;;;;;;;9.68;73.65;144636.72;1853461;77;22570;-63
2021/10/21 04:42:46;;;;;;;29.48;16.57;;;;;;;9.70;73.59;144641.75;1834823;77;22578;-63
2021/10/21 04:45:46;;;;;;;25.68;16.70;;;;;;;9.73;73.53;144648.02;1834035;77;22154;-61
2021/10/21 04:48:21;;;;;;;27.42;17.17;;;;;;;9.78;73.38;144660.55;1853564;77;22581;-60
2021/10/21 04:51:15;;;;;;;28.70;16.93;;;;;;;9.89;73.08;144686.86;1853395;77;22155;-62
2021/10/21 04:53:50;;;;;;;28.00;17.25;;;;;;;9.99;72.65;144711.94;1821952;77;22175;-63
2021/10/21 04:56:25;;;;;;;27.52;16.93;;;;;;;10.10;72.35;144739.55;1818850;77;22227;-62
2021/10/21 04:59:06;;;;;;;30.35;17.37;;;;;;;10.20;71.95;144763.33;1825570;77;22641;-63
2021/10/21 05:02:00;;;;;;;29.72;18.30;;;;;;;10.30;71.52;144787.22;1827558;77;22219;-64
2021/10/21 05:04:37;;;;;;;27.67;18.17;;;;;;;10.41;71.13;144814.83;1817392;77;22316;-62
2021/10/21 05:07:12;;;;;;;25.30;17.55;;;;;;;10.57;70.59;144853.69;1831047;77;22145;-64
2021/10/21 05:10:07;;;;;;;30.08;17.07;;;;;;;10.70;70.07;144885.05;1817884;77;22302;-63
2021/10/21 05:12:42;;;;;;;27.65;17.17;;;;;;;10.81;69.65;144912.63;1819441;77;22241;-62
2021/10/21 05:15:35;;;;;;;29.80;17.17;;;;;;;11.03;68.89;144966.59;1817400;77;22649;-63
2021/10/21 05:18:11;;;;;;;27.30;16.50;;;;;;;11.33;68.28;145040.63;1820378;77;22213;-60
2021/10/21 05:20:47;;;;;;;26.12;17.42;;;;;;;12.10;66.58;145228.97;1818737;77;22199;-62
2021/10/21 05:23:22;;;;;;;29.37;16.60;;;;;;;12.98;64.18;145446.31;1815884;77;22164;-61
2021/10/21 05:26:16;;;;;;;30.35;17.77;;;;;;;13.74;61.04;145632.41;1817193;77;22180;-61
2021/10/21 05:28:52;;;;;;;27.32;17.07;;;;;;;14.24;59.15;145755.61;1824504;78;22220;-60
2021/10/21 05:31:33;;;;;;;29.70;16.07;;;;;;;14.63;57.05;145850.02;1827891;77;23629;-60
2021/10/21 05:34:08;;;;;;;27.55;16.40;;;;;;;14.65;56.63;145855.06;1817740;77;22612;-63
2021/10/21 05:36:45;;;;;;;33.80;15.65;;;;;;;14.84;55.97;145902.89;1817291;77;22199;-62
2021/10/21 05:39:19;;;;;;;23.12;15.43;;;;;;;15.14;55.07;145977.16;1820554;77;22534;-61
2021/10/21 05:42:21;;;;;;;24.32;16.02;;;;;;;15.67;53.91;146106.78;1819615;77;22214;-64
2021/10/21 05:44:56;;;;;;;22.70;15.40;;;;;;;16.19;52.09;146235.33;1782885;79;22176;-61
2021/10/21 05:47:36;;;;;;;23.12;15.38;;;;;;;16.63;51.02;146342.42;1853309;77;22203;-62
2021/10/21 05:50:12;;;;;;;27.45;15.70;;;;;;;17.58;49.20;146578.22;1824879;77;22656;-61
2021/10/21 05:52:47;;;;;;;24.65;16.42;;;;;;;18.59;46.34;146825.48;1801175;77;28188;-63
2021/10/21 05:55:22;;;;;;;22.77;14.07;;;;;;;19.32;44.48;147006.06;1809881;77;22585;-64
2021/10/21 05:57:59;;;;;;;20.20;13.68;;;;;;;19.48;43.08;147045.19;1817069;77;22176;-63
2021/10/21 06:00:35;;;;;;;23.40;15.75;;;;;;;19.28;43.64;146995.94;1795961;77;28046;-64
2021/10/21 06:03:16;;;;;;;22.50;14.23;;;;;;;18.73;44.13;146860.84;1821190;77;22199;-61
2021/10/21 06:05:51;;;;;;;20.85;14.75;;;;;;;18.06;45.23;146694.27;1817557;77;22168;-62
2021/10/21 06:08:25;;;;;;;21.57;15.35;;;;;;;17.76;45.88;146621.09;1834812;77;22128;-61
2021/10/21 06:11:03;;;;;;;21.75;14.38;;;;;;;17.56;46.45;146571.91;1834653;77;22163;-61
2021/10/21 06:13:44;;;;;;;26.95;16.07;;;;;;;17.48;46.56;146553.00;1834009;77;22267;-63
2021/10/21 06:16:19;;;;;;;29.72;16.15;;;;;;;18.08;45.64;146699.33;1834830;77;22173;-63
2021/10/21 06:18:54;;;;;;;27.73;16.65;;;;;;;18.69;44.41;146849.47;1853357;77;22580;-62
2021/10/21 06:21:30;;;;;;;25.32;17.35;;;;;;;19.37;43.18;147017.42;1837410;77;28546;-62
2021/10/21 06:24:05;;;;;;;27.90;18.40;;;;;;;20.21;41.64;147224.61;1837552;77;28026;-61
2021/10/21 06:26:59;;;;;;;19.98;14.38;;;;;;;21.17;39.65;147462.27;1834717;77;22269;-62
2021/10/21 06:29:35;;;;;;;19.27;14.33;;;;;;;21.89;38.20;147641.86;1834967;77;22172;-63
2021/10/21 06:32:30;;;;;;;19.55;13.05;;;;;;;22.59;37.07;147813.95;1834652;77;22156;-63
2021/10/21 06:35:08;;;;;;;17.75;12.43;;;;;;;23.23;35.77;147972.27;1830012;77;20126;-62
2021/10/21 06:37:44;;;;;;;18.35;12.85;;;;;;;23.43;34.78;148021.61;1831660;77;22143;-63
2021/10/21 06:40:18;;;;;;;20.02;12.20;;;;;;;23.54;34.65;148048.23;1812278;77;22262;-62
2021/10/21 06:42:54;;;;;;;20.50;12.55;;;;;;;23.79;34.08;148110.34;1853307;77;22610;-61
2021/10/21 06:45:29;;;;;;;20.17;12.93;;;;;;;24.05;33.74;148176.19;1834769;77;22622;-60
2021/10/21 06:48:04;;;;;;;17.98;11.93;;;;;;;23.98;33.08;148157.19;1853453;77;22156;-61
2021/10/21 06:50:59;;;;;;;18.82;11.60;;;;;;;23.06;34.31;147930.47;1827171;77;22178;-62
2021/10/21 06:54:00;;;;;;;18.70;13.80;;;;;;;21.83;36.06;147625.41;1847775;77;22196;-61
2021/10/21 06:56:36;;;;;;;16.37;12.37;;;;;;;21.08;37.34;147440.75;1833694;77;28027;-62
2021/10/21 06:59:12;;;;;;;15.63;11.57;;;;;;;20.56;38.13;147313.11;1829758;77;22257;-62
2021/10/21 07:01:46;;;;;;;19.05;12.25;;;;;;;20.88;37.99;147391.44;1813378;77;22597;-64
2021/10/21 07:04:21;;;;;;;17.62;12.90;;;;;;;21.59;36.89;147567.23;1811909;77;22194;-63
2021/10/21 07:07:03;;;;;;;18.95;12.73;;;;;;;22.05;36.16;147679.81;1827054;77;22189;-65
2021/10/21 07:09:59;;;;;;;20.35;13.03;;;;;;;23.02;35.10;147920.33;1853554;77;22150;-64
2021/10/21 07:12:53;;;;;;;15.65;11.83;;;;;;;23.87;33.82;148129.34;1831289;77;28038;-60
2021/10/21 07:15:35;;;;;;;18.07;12.05;;;;;;;24.56;32.44;148301.67;1819903;77;22273;-60
2021/10/21 07:18:36;;;;;;;26.80;10.98;;;;;;;24.93;31.60;148392.89;1853345;77;22147;-63
2021/10/21 07:21:15;;;;;;;15.00;11.33;;;;;;;24.79;31.76;148358.69;1823633;77;22148;-64
2021/10/21 07:23:54;;;;;;;14.75;10.13;;;;;;;24.41;32.11;148264.87;1833475;77;22182;-60
2021/10/21 07:26:29;;;;;;;13.72;10.93;;;;;;;24.72;31.81;148340.94;1820782;77;22242;-65
2021/10/21 07:29:05;;;;;;;17.57;9.98;;;;;;;25.33;30.99;148493.09;1834798;77;22634;-65
2021/10/21 07:32:01;;;;;;;14.75;10.70;;;;;;;25.74;30.33;148594.53;1817050;77;22124;-61
2021/10/21 07:34:55;;;;;;;16.93;10.72;;;;;;;25.43;30.64;148515.94;1827654;77;22781;-61
2021/10/21 07:37:49;;;;;;;14.90;11.05;;;;;;;24.72;31.12;148340.94;1834795;77;22294;-63
2021/10/21 07:40:26;;;;;;;15.72;11.22;;;;;;;23.99;32.16;148161.00;1834637;77;22612;-63
2021/10/21 07:43:40;;;;;;;15.15;10.88;;;;;;;23.70;32.72;148087.48;1838076;77;22200;-62
2021/10/21 07:46:24;;;;;;;16.73;11.65;;;;;;;23.06;33.35;147930.47;1853369;77;22234;-61
2021/10/21 07:48:59;;;;;;;16.52;11.55;;;;;;;22.75;34.06;147853.22;1853409;77;22187;-61
2021/10/21 07:51:55;;;;;;;14.00;10.40;;;;;;;22.20;34.89;147717.81;1834698;77;22155;-63
2021/10/21 07:54:32;;;;;;;15.72;11.08;;;;;;;21.46;35.96;147534.36;1832199;77;28026;-64
2021/10/21 07:57:07;;;;;;;13.90;10.80;;;;;;;21.19;36.65;147467.28;1834653;77;22163;-61
2021/10/21 07:59:49;;;;;;;14.15;10.78;;;;;;;20.63;37.59;147329.50;1853373;77;22191;-62
2021/10/21 08:02:29;;;;;;;20.02;12.33;;;;;;;20.19;38.51;147220.81;1853372;77;22610;-60
2021/10/21 08:05:05;;;;;;;18.80;12.10;;;;;;;19.86;39.17;147138.69;1834845;77;22160;-61
2021/10/21 08:08:05;;;;;;;21.45;12.20;;;;;;;19.29;40.14;146998.48;1843258;78;22139;-65
2021/10/21 08:10:58;;;;;;;19.77;12.58;;;;;;;18.85;41.06;146891.19;1834811;77;22693;-62
2021/10/21 08:13:58;;;;;;;17.30;12.13;;;;;;;18.65;41.71;146841.91;1853227;77;22274;-62
2021/10/21 08:16:40;;;;;;;18.23;11.73;;;;;;;18.34;42.21;146764.95;1853569;77;22226;-63
2021/10/21 08:19:16;;;;;;;18.05;12.47;;;;;;;18.03;42.88;146687.97;1834932;77;22137;-61
2021/10/21 08:21:57;;;;;;;17.65;12.33;;;;;;;17.61;43.91;146583.27;1834033;77;22192;-61
2021/10/21 08:24:52;;;;;;;19.67;12.47;;;;;;;17.26;44.71;146497.52;1834388;77;22247;-59
2021/10/21 08:27:27;;;;;;;17.77;12.00;;;;;;;17.25;45.14;146494.97;1825092;77;22187;-61
2021/10/21 08:30:04;;;;;;;18.75;13.20;;;;;;;17.29;45.19;146505.06;1834443;77;22132;-61
2021/10/21 08:33:04;;;;;;;22.32;12.25;;;;;;;17.41;45.20;146535.33;1833832;77;22159;-61
2021/10/21 08:35:59;;;;;;;17.75;12.35;;;;;;;17.46;45.27;146547.94;1853256;77;22190;-62
2021/10/21 08:38:34;;;;;;;19.25;13.08;;;;;;;17.71;44.99;146608.48;1834718;77;22587;-60
2021/10/21 08:41:16;;;;;;;22.42;14.73;;;;;;;17.93;44.74;146663.98;1833887;77;22623;-64
2021/10/21 08:43:51;;;;;;;22.17;13.75;;;;;;;17.94;44.59;146665.28;1834691;77;20218;-61
2021/10/21 08:46:28;;;;;;;24.23;15.10;;;;;;;17.85;44.94;146642.56;1819200;77;28015;-61
2021/10/21 08:49:05;;;;;;;19.70;13.95;;;;;;;17.78;45.18;146626.11;1834484;77;22646;-61
2021/10/21 08:51:47;;;;;;;21.75;14.68;;;;;;;17.57;45.85;146575.66;1834004;77;22184;-61
2021/10/21 08:54:42;;;;;;;24.80;13.95;;;;;;;17.58;46.04;146576.97;1834595;77;22269;-59
2021/10/21 08:57:42;;;;;;;19.65;13.45;;;;;;;17.66;45.94;146595.88;1833956;77;22618;-60
2021/10/21 09:00:38;;;;;;;19.35;12.03;;;;;;;17.06;46.81;146449.59;1853438;77;22156;-60
2021/10/21 09:03:36;;;;;;;19.55;12.35;;;;;;;17.04;47.29;146443.28;1834513;77;22639;-62
2021/10/21 09:06:29;;;;;;;20.95;13.50;;;;;;;17.11;47.15;146462.19;1853425;77;22167;-61
2021/10/21 09:08:58;;;;;;;20.37;14.93;;;;;;;17.18;47.25;146477.34;1819250;77;28112;-63
2021/10/21 09:12:05;;;;;;;22.87;13.15;;;;;;;17.18;47.34;146478.59;1853721;77;22218;-64
2021/10/21 09:14:43;;;;;;;18.90;13.28;;;;;;;17.12;47.28;146464.75;1834805;77;22156;-61
2021/10/21 09:17:38;;;;;;;19.02;13.43;;;;;;;16.93;47.17;146416.83;1834763;77;22160;-62
2021/10/21 09:20:35;;;;;;;18.60;13.32;;;;;;;16.70;47.60;146361.31;1834701;77;22156;-62
2021/10/21 09:23:11;;;;;;;18.32;12.85;;;;;;;16.71;47.61;146363.88;1834644;77;22267;-63
2021/10/21 09:26:09;;;;;;;19.65;12.43;;;;;;;16.84;47.29;146394.13;1834581;77;22136;-64
2021/10/21 09:28:44;;;;;;;19.40;12.75;;;;;;;16.84;47.27;146395.42;1834863;77;22611;-61
2021/10/21 09:31:23;;;;;;;19.82;13.13;;;;;;;16.84;47.26;146394.13;1853276;77;22183;-63
2021/10/21 09:33:57;;;;;;;21.05;13.22;;;;;;;16.88;47.14;146405.47;1835019;77;22157;-60
2021/10/21 09:36:50;;;;;;;17.20;12.00;;;;;;;16.85;47.15;146396.67;1853306;77;22160;-64
2021/10/21 09:39:55;;;;;;;17.50;12.73;;;;;;;16.71;47.27;146363.88;1834777;77;22169;-60
2021/10/21 09:42:34;;;;;;;21.07;14.38;;;;;;;16.67;47.62;146352.52;1819108;77;28008;-59
2021/10/21 09:45:41;;;;;;;18.07;13.32;;;;;;;16.76;47.56;146373.92;1833858;77;22164;-63
2021/10/21 09:48:20;;;;;;;22.55;14.25;;;;;;;16.82;47.87;146389.13;1834888;77;22136;-61
2021/10/21 09:51:21;;;;;;;17.57;13.32;;;;;;;16.91;47.45;146411.78;1834603;77;22582;-62
2021/10/21 09:54:18;;;;;;;24.52;14.10;;;;;;;16.99;47.27;146431.94;1834864;77;22132;-63
2021/10/21 09:57:16;;;;;;;19.55;13.40;;;;;;;17.12;47.26;146464.75;1853350;77;22159;-63
2021/10/21 10:00:06;;;;;;;26.48;13.90;;;;;;;17.25;46.77;146494.97;1853312;77;22635;-62
2021/10/21 10:02:43;;;;;;;23.90;14.78;;;;;;;17.30;46.62;146507.56;1819102;77;28038;-61
2021/10/21 10:05:43;;;;;;;21.02;13.28;;;;;;;17.51;46.25;146560.55;1834781;77;22156;-63
2021/10/21 10:08:21;;;;;;;25.17;13.72;;;;;;;17.71;45.99;146608.48;1834735;77;22179;-63
2021/10/21 10:11:22;;;;;;;24.30;14.65;;;;;;;17.81;45.46;146633.75;1834670;77;22180;-63
2021/10/21 10:14:14;;;;;;;22.77;15.28;;;;;;;17.86;45.44;146645.06;1853442;77;22242;-62
2021/10/21 10:16:49;;;;;;;24.63;16.30;;;;;;;17.98;44.87;146676.59;1819212;77;28481;-60
2021/10/21 10:19:26;;;;;;;19.10;14.73;;;;;;;18.17;44.69;146722.05;1853363;77;22135;-58
2021/10/21 10:22:10;;;;;;;24.50;14.78;;;;;;;18.37;44.17;146772.52;1853164;77;22211;-60
2021/10/21 10:25:20;;;;;;;22.07;13.50;;;;;;;18.62;43.70;146833.06;1834133;77;20108;-59
2021/10/21 10:27:59;;;;;;;24.07;14.80;;;;;;;18.77;42.99;146869.70;1853334;77;22152;-61
2021/10/21 10:30:53;;;;;;;24.30;14.43;;;;;;;18.85;43.17;146891.19;1834078;77;22644;-62
2021/10/21 10:33:45;;;;;;;23.55;15.10;;;;;;;19.00;43.09;146926.50;1853479;77;22270;-61
2021/10/21 10:36:30;;;;;;;22.02;14.33;;;;;;;18.83;43.32;146886.13;1853323;77;22152;-60
2021/10/21 10:39:09;;;;;;;25.00;14.40;;;;;;;18.72;42.88;146858.28;1834936;77;22159;-60
2021/10/21 10:41:54;;;;;;;20.65;13.62;;;;;;;18.51;43.24;146805.31;1834140;77;22176;-58
2021/10/21 10:44:57;;;;;;;21.85;13.93;;;;;;;18.50;43.48;146802.81;1834946;77;22168;-60
2021/10/21 10:47:54;;;;;;;22.45;14.85;;;;;;;18.58;43.87;146822.98;1834904;77;22157;-59
2021/10/21 10:50:51;;;;;;;25.65;14.58;;;;;;;18.56;43.91;146819.19;1834737;77;22175;-62
2021/10/21 10:53:50;;;;;;;20.30;13.75;;;;;;;18.32;44.33;146759.89;1834713;77;22590;-64
2021/10/21 10:56:45;;;;;;;24.92;13.58;;;;;;;18.39;44.43;146777.56;1834792;77;22153;-61
2021/10/21 10:59:42;;;;;;;22.13;14.83;;;;;;;18.49;44.11;146800.25;1834813;77;22171;-61
2021/10/21 11:02:28;;;;;;;24.75;15.10;;;;;;;18.54;44.13;146812.88;1834945;77;22164;-59
2021/10/21 11:05:06;;;;;;;27.55;14.20;;;;;;;18.58;43.71;146822.98;1834819;77;22181;-61
2021/10/21 11:07:47;;;;;;;21.55;13.83;;;;;;;18.63;43.41;146835.61;1853289;77;22156;-59
2021/10/21 11:10:30;;;;;;;22.10;13.30;;;;;;;18.52;43.70;146807.81;1834658;77;22688;-61
2021/10/21 11:13:41;;;;;;;24.47;13.48;;;;;;;18.40;44.09;146780.08;1834315;77;22184;-63
2021/10/21 11:16:47;;;;;;;22.98;11.43;;;;;;;18.44;43.59;146790.19;1833436;77;22164;-58
2021/10/21 11:19:44;;;;;;;18.57;12.10;;;;;;;18.55;42.65;146816.67;1843190;77;22152;-58
2021/10/21 11:22:24;;;;;;;17.92;10.10;;;;;;;18.51;42.46;146805.31;1834864;77;22160;-59
2021/10/21 11:25:03;;;;;;;18.80;11.03;;;;;;;18.44;42.34;146788.89;1834804;77;22136;-59
2021/10/21 11:27:42;;;;;;;20.57;11.57;;;;;;;18.40;42.35;146780.08;1834871;77;22132;-61
2021/10/21 11:30:37;;;;;;;17.00;11.63;;;;;;;18.38;42.68;146775.02;1843220;78;23405;-59
2021/10/21 11:33:19;;;;;;;22.75;13.80;;;;;;;18.22;43.92;146734.67;1853863;77;22203;-61
2021/10/21 11:36:13;;;;;;;26.75;13.30;;;;;;;17.98;44.69;146676.59;1834788;77;22152;-61
2021/10/21 11:39:13;;;;;;;23.73;12.93;;;;;;;17.99;44.90;146679.16;1853347;77;22183;-61
2021/10/21 11:41:48;;;;;;;21.45;12.18;;;;;;;17.99;45.03;146679.16;1853411;77;22152;-60
2021/10/21 11:44:24;;;;;;;20.50;12.45;;;;;;;17.55;45.86;146570.66;1834678;77;22266;-61
2021/10/21 11:47:07;;;;;;;18.30;11.25;;;;;;;17.57;45.86;146574.41;1832500;77;22210;-63
2021/10/21 11:49:42;;;;;;;22.48;11.93;;;;;;;17.40;46.38;146532.78;1783577;79;22192;-62
2021/10/21 11:52:17;;;;;;;21.05;11.43;;;;;;;17.36;46.54;146522.72;1827700;77;22163;-59
2021/10/21 11:58:19;;;;;;;21.25;12.30;;;;;;;17.25;46.96;146494.97;1834857;77;22618;-58
2021/10/21 12:01:00;;;;;;;22.02;13.58;;;;;;;17.05;47.62;146447.09;1853384;77;22162;-62
2021/10/21 12:03:41;;;;;;;22.42;11.95;;;;;;;17.09;47.18;146457.14;1836388;77;22589;-58
